NWS Home NWS Lubbock West Texas Mesonet Latest Conditions as of 1100 PM, Fri Aug 07, 2020

Latest   N   C   S   Daily Sum   3hrΔ   24hrΔ   Soil Data 
Site Map   24hr Precip   72hr Precip   Google Plot


Station Time of Last Temp Dew Pt. RH Wind Direction Wind Speed Wind Gust Max Wind Max Temp Min Temp Max RH Min RH Altimeter 1HR Rain Today's Rain Solar Rad RFTI
Abernathy 5ENE  10:55 PM 78 60 53% W1722 35 mph 266° @ 1042 PM 99 76 61 23 30.12" 0 0 0 0
Adrian 6WSW  10:55 PM 75 56 51% S2326 29 mph 240° @ 1005 AM 97 67 67 21 30.11" 0 0.21 0 0
Aiken 3WSW  10:55 PM 82 59 47% SW78 31 mph 184° @ 0341 PM 98 73 62 26 30.10" 0 0 0 0
Amarillo 15NNW   10:55 PM 80 55 43% S810 34 mph 53° @ 0721 PM 103 71 67 16 30.03" 0 0.07 0 0
Amarillo 7SSE  10:55 PM 76 52 43% S88 34 mph 224° @ 0915 AM 103 64 74 20 30.10" 0 0 0 0
Amarillo 9NNE  10:55 PM 81 57 44% SE1316 41 mph 23° @ 0750 PM 102 70 68 20 30.02" 0 0 0 0
Amherst 1NE  10:55 PM 71 60 69% S2529 47 mph 210° @ 0915 PM 98 67 88 24 30.15" 0.07 0.37 2 0
Andrews 2E  10:55 PM 87 54 34% S912 28 mph 171° @ 0910 AM 100 76 59 21 30.10" 0 0 0 0
Anton 6SSW  10:55 PM 70 63 82% W2227 38 mph 297° @ 0930 PM 98 70 82 20 30.16" 0.07 0.07 0 0
Aspermont 3NE  10:55 PM 89 59 37% SE1014 29 mph 192° @ 1245 PM 102 78 60 25 29.99" 0 0 0 0
Big Bend NP - Castolon  10:55 PM 93 59 32% SE2230 34 mph 132° @ 1234 AM 104 81 56 13 29.95" 0 0 0 1
Big Bend NP - Persimmon Gap  10:55 PM 89 56 33% E78 30 mph 30° @ 0807 PM 102 77 56 16 30.03" 0 0 0 0
Big Lake 1WNW  10:55 PM 85 58 40% SE89 32 mph 186° @ 1201 PM 96 75 82 28 30.08" 0 0 0 0
Bootleg 11WNW  10:55 PM 79 52 40% SE1517 35 mph 177° @ 0500 PM 98 68 57 19 30.19" 0 0.04 0 0
Borger 7E  10:55 PM 87 54 32% S1318 48 mph 230° @ 0819 PM 102 72 70 20 29.99" 0 0 0 0
Boys Ranch 1WSW  10:55 PM 78 56 45% E12 31 mph 163° @ 0753 PM 102 73 56 14 30.01" 0 0 0 0
Brownfield 2S  10:55 PM 79 59 51% S48 28 mph 310° @ 1042 PM 100 71 76 22 30.15" 0 0.01 0 0
Canadian 6E  10:55 PM 87 61 41% S1113 35 mph 202° @ 0252 PM 99 74 67 32 29.94" 0 0 0 0
Caprock Canyons State Park  10:55 PM 87 53 32% SW77 33 mph 216° @ 0932 AM 102 74 53 18 30.02" 0 0 0 0
Childress 2NNE  10:55 PM 91 57 34% S1621 29 mph 210° @ 1230 PM 103 78 54 22 29.96" 0 0 0 0
Clarendon 2WSW  10:55 PM 82 59 48% W1926 31 mph 219° @ 0945 AM 99 73 64 25 30.05" 0 0 0 0
Claude 12SW  10:55 PM 74 62 65% E1317 30 mph 209° @ 0944 AM 97 72 73 25 30.07" 0 0.08 0 0
Clyde 2WNW  10:55 PM 84 61 46% S911 27 mph 181° @ 0120 PM 99 74 78 27 30.05" 0 0 0 0
Colorado City 5NW  10:55 PM 87 58 38% S812 28 mph 152° @ 0514 PM 102 76 67 23 30.04" 0 0 0 0
Comanche Springs  10:55 PM 90 59 36% S811 36 mph 180° @ 0313 PM 104 74 65 23 29.96" 0 0 0 0
Coyanosa 2N  10:55 PM 88 58 37% SE1620 27 mph 105° @ 0522 PM 105 77 58 17 30.04" 0 0 0 0
Crane 1NNW   10:55 PM 88 58 37% S1417 31 mph 187° @ 1009 AM 100 78 65 23 30.06" 0 0 0 0
Crowell 1E  10:55 PM 92 59 33% S1316 34 mph 172° @ 0523 PM 104 81 53 23 29.96" 0 0 0 0
Dell City  10:55 PM 79 57 47% N45 30 mph 248° @ 0426 PM 99 71 81 21 30.14" 0 0 0 0
Denver City 7WNW  10:55 PM 76 61 63% N1215 33 mph 336° @ 0950 PM 98 67 90 19 30.15" 0 0 0 0
Dimmitt 2NE  10:55 PM 80 55 44% S46 30 mph 213° @ 0945 AM 97 70 66 25 30.14" 0 0 0 0
Doole 3WNW  10:55 PM 82 61 50% SE89 27 mph 151° @ 0214 PM 100 76 80 25 30.04" 0 0 0 0
Dora NM 2SW  10:55 PM 71 59 71% SE2128 29 mph 136° @ 0935 PM 96 69 79 21 30.18" 0 0.35 0 0
Dozier 3W  10:55 PM 87 62 42% S78 40 mph 319° @ 1223 AM 101 71 84 29 29.99" 0 0.04 0 0
Earth 9WSW  10:55 PM 72 60 66% SE1618 38 mph 177° @ 0922 PM 99 69 78 24 30.13" 0.01 0.01 0 0
Endee NM 2SW  10:55 PM 83 54 37% SE1215 34 mph 164° @ 0606 PM 102 70 58 16 30.11" 0 0 0 0
Estelline 3SSE  10:55 PM 91 59 35% S1115 28 mph 169° @ 0410 PM 105 78 53 21 29.96" 0 0 0 0
Floydada 2NNE  10:55 PM 87 54 33% S1216 30 mph 197° @ 1005 AM 99 74 55 20 30.07" 0 0 0 0
Fluvanna 3WNW  10:55 PM 87 54 35% S1317 29 mph 174° @ 0145 PM 99 75 66 24 30.05" 0 0 0 0
Fort Chadbourne  10:55 PM 88 62 42% S1013 28 mph 172° @ 0150 PM 101 73 78 24 30.05" 0 0 0 0
Fort Lancaster  10:55 PM 88 61 40% SE1214 27 mph 138° @ 1243 PM 99 77 83 28 30.04" 0 0 0 0
Fort Lewis CO  10:55 PM 58 39 50% NE44 25 mph 280° @ 0254 PM 82 44 71 16 30.37" 0 0 0 0
Fort McKavett  10:55 PM 82 63 52% SE66 24 mph 190° @ 0225 PM 99 75 86 30 30.09" 0 0 0 0
Friona 2NE  10:55 PM 74 57 58% SE814 33 mph 185° @ 0515 PM 100 68 68 17 30.16" 0 0 0 0
Fritch 1WNW  10:55 PM 82 54 37% S911 54 mph 228° @ 0807 PM 103 72 61 20 30.01" 0 0 0 0
Gail 2ESE  10:55 PM 87 52 31% S913 30 mph 172° @ 1120 AM 102 78 59 18 30.04" 0 0 0 0
Goodlett 3W  10:55 PM 92 57 32% S1518 37 mph 161° @ 0650 PM 105 78 54 20 29.95" 0 0 0 0
Goodnight  10:55 PM 76 62 64% SE1620 38 mph 220° @ 1017 PM 102 70 80 21 30.09" 0.68 0.68 0 0
Graham 5SSW  10:55 PM 89 52 30% S1622 33 mph 178° @ 1205 AM 98 78 58 19 30.06" 0 0 0 0
Guadalupe Mtns Natl Park  10:55 PM 76 50 41% W89 28 mph 144° @ 0539 PM 92 71 54 17 30.26" 0 0 0 0
Guthrie 10WSW  10:55 PM 89 54 31% S1316 32 mph 194° @ 0215 PM 104 80 50 18 29.98" 0 0 0 0
Hackberry 2SSE  10:55 PM 90 60 37% S1417 30 mph 200° @ 0927 AM 103 79 53 22 29.97" 0 0 0 0
Happy 1E  10:55 PM 80 54 40% SW78 32 mph 229° @ 0909 AM 100 68 62 22 30.12" 0 0 0 0
Hart 3N  10:55 PM 74 61 65% S1522 28 mph 214° @ 1000 AM 98 69 70 25 30.12" 0 0 0 0
Haskell 1NW  10:55 PM 89 59 39% S811 29 mph 193° @ 0125 PM 100 78 67 27 29.98" 0 0 0 0
Hefner 1SW  10:55 PM 87 59 39% SE1315 28 mph 174° @ 0643 PM 104 78 64 21 29.98" 0 0 0 0
Hereford 2NW  10:55 PM 79 52 40% SE810 28 mph 184° @ 0450 PM 101 71 61 19 30.13" 0 0.02 0 0
Hobbs NM 5NW  10:55 PM 83 47 28% N34 51 mph 190° @ 0926 PM 98 74 55 15 30.16" 0 0 0 0
Jayton 1SSE  10:55 PM 88 57 37% SE913 29 mph 165° @ 0420 PM 103 77 59 22 30.00" 0 0 0 0
Junction 1SSW  10:55 PM 85 64 50% S57 23 mph 179° @ 0508 PM 99 76 83 30 30.07" 0 0 0 0
Kent 9E  10:55 PM 82 52 35% N47 35 mph 206° @ 0324 PM 100 74 51 17 30.12" 0 0 0 0
Knox City 3NW  10:55 PM 88 60 41% SE1113 31 mph 182° @ 0305 PM 104 78 66 26 29.96" 0 0 0 0
Lake Alan Henry 1NW  10:55 PM 90 58 34% S913 27 mph 177° @ 0242 PM 102 79 61 18 30.02" 0 0 0 0
Lake McClellan 2NW  10:55 PM 82 57 43% SW2025 31 mph 221° @ 0952 AM 100 72 76 27 30.06" 0 0.01 0 0
Lamesa 2SE  10:55 PM 84 55 39% S810 30 mph 180° @ 1105 AM 99 75 64 20 30.08" 0 0 0 0
Lesley 2S  10:55 PM 89 59 37% SE67 31 mph 177° @ 0153 PM 106 74 63 21 29.97" 0 0 0 0
Levelland 4S  10:55 PM 71 63 77% W1418 44 mph 305° @ 0933 PM 96 69 78 26 30.19" 0 0 0 0
Lomax 1SSE  10:55 PM 87 56 34% S1012 30 mph 172° @ 0200 PM 99 76 69 21 30.06" 0 0 0 0
Lubbock 3WNW TTU  10:55 PM 77 62 63% W1520 35 mph 293° @ 1000 PM 100 76 63 23 30.12" 0 0 0 0
McAdoo 3NNW  10:55 PM 88 56 35% S1621 34 mph 196° @ 0302 PM 101 77 57 23 30.06" 0 0 0 0
McCamey 1SSW  10:55 PM 87 59 38% SE1116 33 mph 171° @ 0103 PM 99 77 70 25 30.05" 0 0 0 0
McLean 1E  10:55 PM 86 59 42% SW810 32 mph 213° @ 1025 AM 98 71 85 26 30.01" 0 0.34 0 0
Memphis 1NE  10:55 PM 90 56 33% SE912 28 mph 149° @ 0455 PM 103 72 69 22 29.97" 0 0 0 0
Menard 2NW   10:55 PM 84 64 50% SE810 28 mph 140° @ 0411 PM 99 75 84 29 30.08" 0 0 0 0
Mertzon 3NNE  10:55 PM 86 60 41% S912 32 mph 185° @ 1130 AM 99 75 79 26 30.07" 0 0 0 0
Morton 1ENE  10:55 PM 71 61 75% SE1724 49 mph 279° @ 0820 PM 98 66 90 18 30.18" 0.06 1.32 0 0
Muleshoe 2SSW  10:55 PM 76 56 53% S1825 40 mph 181° @ 0920 PM 97 72 68 24 30.13" 0 0 0 0
New Home  10:55 PM 79 59 51% NW811 28 mph 195° @ 0902 AM 99 73 67 23 30.14" 0 0 0 0
Northfield 1S  10:55 PM 90 53 30% S1621 32 mph 213° @ 0940 AM 104 77 52 19 29.97" 0 0 0 0
O'Donnell 1N  10:55 PM 86 56 37% S811 28 mph 190° @ 1020 AM 99 75 63 23 30.08" 0 0 0 0
Odell 4ENE  10:55 PM 88 62 42% SE1214 30 mph 210° @ 1039 AM 103 78 60 23 29.95" 0 0 0 0
Olton 6S  10:55 PM 72 61 71% SW2126 34 mph 254° @ 0925 PM 98 68 72 26 30.16" 0 0 0 0
Paducah 10SW  10:55 PM 89 56 34% S1116 31 mph 206° @ 0955 AM 100 78 54 24 29.98" 0 0 0 0
Palo Duro 4E (JA Ranch)  10:55 PM 78 65 64% E1922 41 mph 218° @ 1036 PM 103 70 72 24 30.05" 0.18 0.18 0 0
Palo Duro Canyon SP Floor  10:55 PM 79 59 51% NW11 27 mph 161° @ 0606 PM 103 68 74 22 30.05" 0 0 0 0
Palo Duro Canyon State Park Rim  10:55 PM 77 59 52% N12 29 mph 1° @ 0851 PM 101 71 74 20 30.10" 0 0.11 0 0
Palo Duro Reservoir 1NW   10:55 PM 75 55 48% W1314 31 mph 221° @ 0819 PM 102 67 74 19 29.98" 0 0 0 0
Pampa 2E  10:55 PM 86 55 35% SW1016 32 mph 209° @ 1010 AM 99 70 80 26 30.01" 0 0 0 0
Panhandle 1SSW  10:55 PM 77 58 51% S1214 39 mph 247° @ 0748 PM 99 65 88 24 30.08" 0 0 0 0
Plains 3N  10:55 PM 72 63 76% N1317 32 mph 299° @ 0935 PM 98 70 79 20 30.18" 0.02 0.02 0 0
Plainview 1S  10:55 PM 83 59 46% W1118 30 mph 208° @ 0945 AM 98 74 65 24 30.09" 0 0 0 0
Post 1NE  10:55 PM 90 52 28% S1016 28 mph 182° @ 1100 AM 101 79 52 17 30.04" 0 0 0 0
Ralls 1SE  10:55 PM 85 53 35% SW1015 30 mph 197° @ 0950 AM 99 75 57 20 30.10" 0 0 0 0
Reese Center  10:55 PM 71 64 79% NW2227 49 mph 318° @ 0951 PM 99 70 79 22 30.13" 0 0 0 0
Roaring Springs 3N  10:55 PM 88 57 37% S1115 32 mph 198° @ 1010 AM 100 76 59 22 30.02" 0 0 0 0
Romero 11SSW  10:55 PM 81 55 42% S2021 38 mph 181° @ 0654 PM 98 63 82 18 30.07" 0 0.01 0 0
Rotan 5W  10:55 PM 87 58 37% SE1012 34 mph 167° @ 0245 PM 103 77 61 22 30.02" 0 0 0 0
San Angelo 7NW  10:55 PM 88 60 41% SE1014 26 mph 176° @ 1110 AM 100 77 77 24 30.04" 0 0 0 0
Seagraves 1SW  10:55 PM 74 62 70% N1317 48 mph 179° @ 0600 PM 97 68 84 31 30.14" 0 0.21 0 0
Segovia 7SSW  10:55 PM 82 65 55% SE79 26 mph 162° @ 1010 AM 94 73 88 34 30.11" 0 0 0 0
Seminole 2NNE  10:55 PM 82 58 47% N1625 26 mph 173° @ 0820 AM 99 75 59 25 30.13" 0 0 0 0
Seymour 3NW  10:55 PM 90 61 40% SE1420 28 mph 147° @ 0625 PM 104 77 64 24 29.96" 0 0 0 0
Sierra Blanca 1SSE  10:55 PM 80 53 40% N1417 30 mph 65° @ 0555 PM 97 71 58 19 30.18" 0 0 0 0
Silverton 7ESE  10:55 PM 87 54 34% SW912 31 mph 212° @ 0925 AM 101 73 58 23 30.07" 0 0 0 0
Slaton 2NE  10:55 PM 83 58 44% W1421 27 mph 190° @ 1015 AM 99 75 61 24 30.11" 0 0 0 0
Smyer  10:55 PM 70 64 81% W1823 44 mph 307° @ 0937 PM 98 70 84 22 30.17" 0.09 0.14 4 0
Snyder 3E  10:55 PM 86 56 37% SE1115 31 mph 180° @ 1215 PM 100 74 67 25 30.03" 0 0 0 0
Snyder 3SSW  10:55 PM 88 58 36% S1113 31 mph 183° @ 1158 AM 101 75 67 25 30.04" 0 0 0 0
South Plains 3ENE  10:55 PM 86 56 37% S78 37 mph 205° @ 0937 AM 100 73 56 22 30.07" 0 0 0 0
Spur 1W  10:55 PM 88 55 34% S710 31 mph 211° @ 0410 PM 103 80 56 20 30.01" 0 0 0 0
St. Lawrence 5SW  10:55 PM 86 55 37% S1113 33 mph 175° @ 1120 AM 98 75 77 25 30.07" 0 0 0 0
Stamford 5ESE  10:55 PM 88 60 39% S1314 35 mph 192° @ 0405 PM 103 79 68 24 30.00" 0 0 0 0
Sterling City 4WSW  10:55 PM 88 58 36% SE1316 28 mph 162° @ 0936 AM 100 75 74 22 30.06" 0 0 0 0
Stinnett 1NNW  10:55 PM 85 53 34% S1315 37 mph 217° @ 0707 PM 98 66 79 24 30.01" 0 0 0 0
Stratford 4WNW  10:55 PM 75 53 46% S810 25 mph 220° @ 0757 PM 100 65 73 14 30.05" 0 0 0 0
Sundown 8WSW  10:55 PM 68 62 84% NW1419 40 mph 309° @ 0900 PM 99 68 84 22 30.20" 0.15 0.35 0 0
Sweetwater 11SW   10:55 PM 86 60 42% S1415 31 mph 185° @ 0901 AM 98 75 74 24 30.07" 0 0 0 0
Tahoka 3NNE  10:55 PM 84 56 39% NW910 28 mph 187° @ 1048 AM 100 76 59 22 30.10" 0 0 2 0
Tarzan 2WNW  10:55 PM 88 57 35% SE1214 29 mph 175° @ 0920 AM 101 76 63 21 30.07" 0 0 0 0
Tatum NM 2SW  10:55 PM 71 62 76% N79 34 mph 208° @ 0340 PM 100 70 79 14 30.18" 0 0.06 0 0
Throckmorton 1SW  10:55 PM 88 63 43% SE1216 26 mph 132° @ 0655 PM 103 76 71 24 29.99" 0 0 0 0
Truscott 2SE  10:55 PM 90 58 34% SE1112 32 mph 188° @ 1226 PM 105 78 56 22 29.96" 0 0 0 0
Tulia 2ENE  10:55 PM 82 57 44% SW1418 30 mph 215° @ 1005 AM 98 73 61 28 30.10" 0 0 0 0
Turkey 2WSW  10:55 PM 86 57 38% SE89 31 mph 185° @ 0920 AM 102 76 57 22 30.00" 0 0 0 0
Umbarger 3NNE  10:55 PM 77 55 47% N12 32 mph 216° @ 0927 AM 99 66 70 23 30.13" 0 0 0 0
Van Horn 3ENE  10:55 PM 83 53 35% NE79 32 mph 113° @ 0415 PM 102 73 59 16 30.12" 0 0 0 0
Vigo Park  10:55 PM 80 56 44% NW56 35 mph 207° @ 0102 PM 102 69 63 23 30.09" 0 0 0 0
Wall 2E  10:55 PM 84 62 48% SE810 24 mph 193° @ 1050 AM 100 76 80 27 30.05" 0 0 0 0
Weinert 2NNE  10:55 PM 90 59 35% S1318 29 mph 182° @ 0343 PM 102 80 61 23 29.98" 0 0 0 0
Welch  10:55 PM 83 59 45% NW2429 31 mph 272° @ 1049 PM 100 72 75 23 30.12" 0 0 0 0
White River Lake 6NW  10:55 PM 89 56 35% S1317 32 mph 186° @ 1035 AM 100 78 59 23 30.04" 0 0 0 0
Wolfforth 6SSW  10:55 PM 74 63 70% W1823 37 mph 316° @ 1000 PM 99 70 76 24 30.15" 0 0 0 0

West Texas Mesonet Home   Site Map/Menu  NWS Lubbock Soil Data  Daily Summary Page  24hr Precip  72hr Precip  Google Plot